sensor_id;sensor_type;location;lat;lon;timestamp;P1;durP1;ratioP1;P2;durP2;ratioP2
59424;SDS011;45231;44.826;20.312;2023-06-19T00:00:11;13.15;;;7.78;;
59424;SDS011;45231;44.826;20.312;2023-06-19T00:02:42;12.88;;;7.97;;
59424;SDS011;45231;44.826;20.312;2023-06-19T00:05:08;12.65;;;8.57;;
59424;SDS011;45231;44.826;20.312;2023-06-19T00:07:38;15.45;;;8.95;;
59424;SDS011;45231;44.826;20.312;2023-06-19T00:10:04;12.25;;;8.20;;
59424;SDS011;45231;44.826;20.312;2023-06-19T00:14:57;12.98;;;8.68;;
59424;SDS011;45231;44.826;20.312;2023-06-19T00:17:23;13.25;;;9.23;;
59424;SDS011;45231;44.826;20.312;2023-06-19T00:19:51;12.88;;;8.70;;
59424;SDS011;45231;44.826;20.312;2023-06-19T00:22:17;14.10;;;8.95;;
59424;SDS011;45231;44.826;20.312;2023-06-19T00:24:43;15.52;;;8.98;;
59424;SDS011;45231;44.826;20.312;2023-06-19T00:27:09;15.07;;;8.93;;
59424;SDS011;45231;44.826;20.312;2023-06-19T00:29:35;14.13;;;9.30;;
59424;SDS011;45231;44.826;20.312;2023-06-19T00:32:01;13.73;;;9.60;;
59424;SDS011;45231;44.826;20.312;2023-06-19T00:34:29;13.80;;;9.23;;
59424;SDS011;45231;44.826;20.312;2023-06-19T00:36:55;14.18;;;9.57;;
59424;SDS011;45231;44.826;20.312;2023-06-19T00:39:24;12.93;;;8.93;;
59424;SDS011;45231;44.826;20.312;2023-06-19T00:41:51;12.70;;;9.60;;
59424;SDS011;45231;44.826;20.312;2023-06-19T00:44:18;14.02;;;9.75;;
59424;SDS011;45231;44.826;20.312;2023-06-19T00:46:44;12.27;;;9.15;;
59424;SDS011;45231;44.826;20.312;2023-06-19T00:49:11;14.30;;;9.88;;
59424;SDS011;45231;44.826;20.312;2023-06-19T00:51:37;13.80;;;9.48;;
59424;SDS011;45231;44.826;20.312;2023-06-19T00:54:03;13.93;;;9.40;;
59424;SDS011;45231;44.826;20.312;2023-06-19T00:56:30;13.93;;;10.18;;
59424;SDS011;45231;44.826;20.312;2023-06-19T01:01:22;13.32;;;9.52;;
59424;SDS011;45231;44.826;20.312;2023-06-19T01:03:49;16.25;;;9.98;;
59424;SDS011;45231;44.826;20.312;2023-06-19T01:06:22;12.88;;;9.55;;
59424;SDS011;45231;44.826;20.312;2023-06-19T01:11:17;15.75;;;9.90;;
59424;SDS011;45231;44.826;20.312;2023-06-19T01:13:44;15.98;;;10.02;;
59424;SDS011;45231;44.826;20.312;2023-06-19T01:16:11;15.38;;;10.15;;
59424;SDS011;45231;44.826;20.312;2023-06-19T01:18:38;16.08;;;10.45;;
59424;SDS011;45231;44.826;20.312;2023-06-19T01:21:13;13.50;;;9.40;;
59424;SDS011;45231;44.826;20.312;2023-06-19T01:23:40;14.52;;;10.90;;
59424;SDS011;45231;44.826;20.312;2023-06-19T01:26:06;22.90;;;11.63;;
59424;SDS011;45231;44.826;20.312;2023-06-19T01:28:33;17.73;;;11.07;;
59424;SDS011;45231;44.826;20.312;2023-06-19T01:31:00;17.08;;;10.70;;
59424;SDS011;45231;44.826;20.312;2023-06-19T01:33:28;16.10;;;10.68;;
59424;SDS011;45231;44.826;20.312;2023-06-19T01:35:55;14.82;;;10.82;;
59424;SDS011;45231;44.826;20.312;2023-06-19T01:40:50;18.98;;;11.77;;
59424;SDS011;45231;44.826;20.312;2023-06-19T01:43:17;17.27;;;12.00;;
59424;SDS011;45231;44.826;20.312;2023-06-19T01:45:44;21.98;;;11.88;;
59424;SDS011;45231;44.826;20.312;2023-06-19T01:48:10;25.17;;;12.52;;
59424;SDS011;45231;44.826;20.312;2023-06-19T01:50:36;26.92;;;11.80;;
59424;SDS011;45231;44.826;20.312;2023-06-19T01:53:02;19.70;;;12.32;;
59424;SDS011;45231;44.826;20.312;2023-06-19T01:55:28;24.73;;;11.95;;
59424;SDS011;45231;44.826;20.312;2023-06-19T01:57:54;17.55;;;12.10;;
59424;SDS011;45231;44.826;20.312;2023-06-19T02:00:21;17.25;;;11.35;;
59424;SDS011;45231;44.826;20.312;2023-06-19T02:02:47;18.42;;;12.23;;
59424;SDS011;45231;44.826;20.312;2023-06-19T02:05:13;17.17;;;12.00;;
59424;SDS011;45231;44.826;20.312;2023-06-19T02:07:40;18.10;;;12.20;;
59424;SDS011;45231;44.826;20.312;2023-06-19T02:10:06;18.45;;;11.98;;
59424;SDS011;45231;44.826;20.312;2023-06-19T02:12:33;16.63;;;11.35;;
59424;SDS011;45231;44.826;20.312;2023-06-19T02:14:59;15.23;;;11.40;;
59424;SDS011;45231;44.826;20.312;2023-06-19T02:17:25;21.00;;;13.00;;
59424;SDS011;45231;44.826;20.312;2023-06-19T02:19:51;18.35;;;12.65;;
59424;SDS011;45231;44.826;20.312;2023-06-19T02:22:17;18.35;;;13.15;;
59424;SDS011;45231;44.826;20.312;2023-06-19T02:24:44;20.25;;;12.55;;
59424;SDS011;45231;44.826;20.312;2023-06-19T02:27:10;15.55;;;11.65;;
59424;SDS011;45231;44.826;20.312;2023-06-19T02:29:36;18.15;;;12.30;;
59424;SDS011;45231;44.826;20.312;2023-06-19T02:32:02;18.30;;;11.90;;
59424;SDS011;45231;44.826;20.312;2023-06-19T02:34:28;18.35;;;12.65;;
59424;SDS011;45231;44.826;20.312;2023-06-19T02:36:54;18.10;;;12.10;;
59424;SDS011;45231;44.826;20.312;2023-06-19T02:39:21;21.13;;;12.57;;
59424;SDS011;45231;44.826;20.312;2023-06-19T02:41:48;17.73;;;11.98;;
59424;SDS011;45231;44.826;20.312;2023-06-19T02:44:14;16.92;;;11.00;;
59424;SDS011;45231;44.826;20.312;2023-06-19T02:46:40;17.73;;;11.48;;
59424;SDS011;45231;44.826;20.312;2023-06-19T02:49:06;16.20;;;12.02;;
59424;SDS011;45231;44.826;20.312;2023-06-19T02:51:32;18.02;;;12.02;;
59424;SDS011;45231;44.826;20.312;2023-06-19T02:53:58;19.27;;;12.77;;
59424;SDS011;45231;44.826;20.312;2023-06-19T02:56:25;19.52;;;12.88;;
59424;SDS011;45231;44.826;20.312;2023-06-19T02:58:53;20.13;;;13.40;;
59424;SDS011;45231;44.826;20.312;2023-06-19T03:01:20;19.67;;;12.65;;
59424;SDS011;45231;44.826;20.312;2023-06-19T03:03:46;18.60;;;12.90;;
59424;SDS011;45231;44.826;20.312;2023-06-19T03:06:12;17.13;;;13.10;;
59424;SDS011;45231;44.826;20.312;2023-06-19T03:08:39;18.52;;;13.57;;
59424;SDS011;45231;44.826;20.312;2023-06-19T03:11:05;17.40;;;13.30;;
59424;SDS011;45231;44.826;20.312;2023-06-19T03:13:50;19.50;;;12.35;;
59424;SDS011;45231;44.826;20.312;2023-06-19T03:16:17;18.95;;;13.18;;
59424;SDS011;45231;44.826;20.312;2023-06-19T03:18:43;21.38;;;12.90;;
59424;SDS011;45231;44.826;20.312;2023-06-19T03:23:35;16.00;;;12.02;;
59424;SDS011;45231;44.826;20.312;2023-06-19T03:26:02;17.88;;;11.88;;
59424;SDS011;45231;44.826;20.312;2023-06-19T03:28:28;17.15;;;12.02;;
59424;SDS011;45231;44.826;20.312;2023-06-19T03:30:54;16.20;;;12.40;;
59424;SDS011;45231;44.826;20.312;2023-06-19T03:33:20;17.15;;;12.57;;
59424;SDS011;45231;44.826;20.312;2023-06-19T03:35:46;19.50;;;12.35;;
59424;SDS011;45231;44.826;20.312;2023-06-19T03:38:12;32.58;;;12.63;;
59424;SDS011;45231;44.826;20.312;2023-06-19T03:40:38;29.63;;;12.07;;
59424;SDS011;45231;44.826;20.312;2023-06-19T03:43:05;19.38;;;11.38;;
59424;SDS011;45231;44.826;20.312;2023-06-19T03:45:31;15.52;;;10.65;;
59424;SDS011;45231;44.826;20.312;2023-06-19T03:47:57;15.65;;;11.15;;
59424;SDS011;45231;44.826;20.312;2023-06-19T03:50:24;13.52;;;10.38;;
59424;SDS011;45231;44.826;20.312;2023-06-19T03:52:50;13.77;;;9.40;;
59424;SDS011;45231;44.826;20.312;2023-06-19T03:55:17;15.02;;;10.25;;
59424;SDS011;45231;44.826;20.312;2023-06-19T04:00:09;14.95;;;10.75;;
59424;SDS011;45231;44.826;20.312;2023-06-19T04:02:38;18.45;;;11.32;;
59424;SDS011;45231;44.826;20.312;2023-06-19T04:05:04;17.58;;;10.13;;
59424;SDS011;45231;44.826;20.312;2023-06-19T04:09:57;14.00;;;9.48;;
59424;SDS011;45231;44.826;20.312;2023-06-19T04:12:23;13.75;;;8.75;;
59424;SDS011;45231;44.826;20.312;2023-06-19T04:14:49;14.25;;;9.75;;
59424;SDS011;45231;44.826;20.312;2023-06-19T04:17:15;14.88;;;10.25;;
59424;SDS011;45231;44.826;20.312;2023-06-19T04:19:41;14.30;;;9.60;;
59424;SDS011;45231;44.826;20.312;2023-06-19T04:22:07;17.52;;;10.23;;
59424;SDS011;45231;44.826;20.312;2023-06-19T04:24:34;14.10;;;9.50;;
59424;SDS011;45231;44.826;20.312;2023-06-19T04:27:00;15.90;;;9.60;;
59424;SDS011;45231;44.826;20.312;2023-06-19T04:29:26;14.98;;;9.93;;
59424;SDS011;45231;44.826;20.312;2023-06-19T04:31:57;14.25;;;9.85;;
59424;SDS011;45231;44.826;20.312;2023-06-19T04:34:23;14.60;;;10.50;;
59424;SDS011;45231;44.826;20.312;2023-06-19T04:39:16;21.13;;;10.48;;
59424;SDS011;45231;44.826;20.312;2023-06-19T04:41:45;17.48;;;8.93;;
59424;SDS011;45231;44.826;20.312;2023-06-19T04:44:11;15.52;;;9.15;;
59424;SDS011;45231;44.826;20.312;2023-06-19T04:46:38;13.55;;;8.55;;
59424;SDS011;45231;44.826;20.312;2023-06-19T04:49:04;12.70;;;8.55;;
59424;SDS011;45231;44.826;20.312;2023-06-19T04:53:57;11.85;;;8.07;;
59424;SDS011;45231;44.826;20.312;2023-06-19T04:56:23;17.83;;;8.07;;
59424;SDS011;45231;44.826;20.312;2023-06-19T04:58:49;14.27;;;7.57;;
59424;SDS011;45231;44.826;20.312;2023-06-19T05:01:16;12.80;;;7.63;;
59424;SDS011;45231;44.826;20.312;2023-06-19T05:06:08;17.45;;;7.78;;
59424;SDS011;45231;44.826;20.312;2023-06-19T05:08:34;11.77;;;6.72;;
59424;SDS011;45231;44.826;20.312;2023-06-19T05:11:00;13.40;;;7.03;;
59424;SDS011;45231;44.826;20.312;2023-06-19T05:13:26;9.68;;;6.88;;
59424;SDS011;45231;44.826;20.312;2023-06-19T05:15:53;11.23;;;6.90;;
59424;SDS011;45231;44.826;20.312;2023-06-19T05:18:20;10.10;;;6.88;;
59424;SDS011;45231;44.826;20.312;2023-06-19T05:20:46;9.32;;;6.13;;
59424;SDS011;45231;44.826;20.312;2023-06-19T05:23:13;11.00;;;6.93;;
59424;SDS011;45231;44.826;20.312;2023-06-19T05:25:39;11.82;;;7.20;;
59424;SDS011;45231;44.826;20.312;2023-06-19T05:28:05;11.52;;;6.45;;
59424;SDS011;45231;44.826;20.312;2023-06-19T05:30:31;13.00;;;6.80;;
59424;SDS011;45231;44.826;20.312;2023-06-19T05:32:57;9.98;;;5.93;;
59424;SDS011;45231;44.826;20.312;2023-06-19T05:35:23;10.93;;;6.68;;
59424;SDS011;45231;44.826;20.312;2023-06-19T05:37:50;11.48;;;6.85;;
59424;SDS011;45231;44.826;20.312;2023-06-19T05:40:16;12.68;;;6.32;;
59424;SDS011;45231;44.826;20.312;2023-06-19T05:42:42;10.13;;;6.60;;
59424;SDS011;45231;44.826;20.312;2023-06-19T05:45:09;10.13;;;6.47;;
59424;SDS011;45231;44.826;20.312;2023-06-19T05:50:01;14.63;;;6.40;;
59424;SDS011;45231;44.826;20.312;2023-06-19T05:52:27;13.63;;;6.57;;
59424;SDS011;45231;44.826;20.312;2023-06-19T05:54:53;13.63;;;6.10;;
59424;SDS011;45231;44.826;20.312;2023-06-19T05:59:48;13.90;;;6.97;;
59424;SDS011;45231;44.826;20.312;2023-06-19T06:02:14;9.77;;;6.50;;
59424;SDS011;45231;44.826;20.312;2023-06-19T06:04:40;10.77;;;6.20;;
59424;SDS011;45231;44.826;20.312;2023-06-19T06:07:07;9.57;;;6.25;;
59424;SDS011;45231;44.826;20.312;2023-06-19T06:09:33;16.80;;;6.80;;
59424;SDS011;45231;44.826;20.312;2023-06-19T06:14:25;12.95;;;6.78;;
59424;SDS011;45231;44.826;20.312;2023-06-19T06:16:52;16.95;;;6.97;;
59424;SDS011;45231;44.826;20.312;2023-06-19T06:19:19;11.82;;;6.90;;
59424;SDS011;45231;44.826;20.312;2023-06-19T06:21:47;13.18;;;6.30;;
59424;SDS011;45231;44.826;20.312;2023-06-19T06:24:14;10.68;;;5.90;;
59424;SDS011;45231;44.826;20.312;2023-06-19T06:29:06;10.02;;;5.22;;
59424;SDS011;45231;44.826;20.312;2023-06-19T06:31:33;12.98;;;5.57;;
59424;SDS011;45231;44.826;20.312;2023-06-19T06:33:59;11.23;;;5.50;;
59424;SDS011;45231;44.826;20.312;2023-06-19T06:36:25;11.43;;;5.15;;
59424;SDS011;45231;44.826;20.312;2023-06-19T06:38:51;10.75;;;5.47;;
59424;SDS011;45231;44.826;20.312;2023-06-19T06:41:17;11.27;;;6.13;;
59424;SDS011;45231;44.826;20.312;2023-06-19T06:43:43;22.08;;;7.03;;
59424;SDS011;45231;44.826;20.312;2023-06-19T06:46:09;13.25;;;6.25;;
59424;SDS011;45231;44.826;20.312;2023-06-19T06:48:38;16.65;;;6.43;;
59424;SDS011;45231;44.826;20.312;2023-06-19T06:51:04;16.77;;;6.25;;
59424;SDS011;45231;44.826;20.312;2023-06-19T06:53:30;11.05;;;6.35;;
59424;SDS011;45231;44.826;20.312;2023-06-19T06:56:00;11.43;;;5.70;;
59424;SDS011;45231;44.826;20.312;2023-06-19T06:58:26;12.05;;;6.28;;
59424;SDS011;45231;44.826;20.312;2023-06-19T07:00:52;10.45;;;5.22;;
59424;SDS011;45231;44.826;20.312;2023-06-19T07:03:19;10.40;;;5.90;;
59424;SDS011;45231;44.826;20.312;2023-06-19T07:05:45;9.63;;;5.50;;
59424;SDS011;45231;44.826;20.312;2023-06-19T07:08:11;11.23;;;5.70;;
59424;SDS011;45231;44.826;20.312;2023-06-19T07:10:37;12.60;;;5.47;;
59424;SDS011;45231;44.826;20.312;2023-06-19T07:13:03;20.42;;;5.60;;
59424;SDS011;45231;44.826;20.312;2023-06-19T07:15:29;37.20;;;7.18;;
59424;SDS011;45231;44.826;20.312;2023-06-19T07:17:55;19.08;;;5.70;;
59424;SDS011;45231;44.826;20.312;2023-06-19T07:20:21;11.55;;;5.57;;
59424;SDS011;45231;44.826;20.312;2023-06-19T07:22:49;8.30;;;5.32;;
59424;SDS011;45231;44.826;20.312;2023-06-19T07:25:16;9.52;;;5.18;;
59424;SDS011;45231;44.826;20.312;2023-06-19T07:27:42;14.73;;;5.25;;
59424;SDS011;45231;44.826;20.312;2023-06-19T07:30:08;11.48;;;4.95;;
59424;SDS011;45231;44.826;20.312;2023-06-19T07:32:36;8.15;;;5.20;;
59424;SDS011;45231;44.826;20.312;2023-06-19T07:35:02;10.50;;;5.82;;
59424;SDS011;45231;44.826;20.312;2023-06-19T07:37:28;21.00;;;6.13;;
59424;SDS011;45231;44.826;20.312;2023-06-19T07:39:54;11.95;;;5.40;;
59424;SDS011;45231;44.826;20.312;2023-06-19T07:42:21;9.52;;;5.20;;
59424;SDS011;45231;44.826;20.312;2023-06-19T07:44:47;11.10;;;5.20;;
59424;SDS011;45231;44.826;20.312;2023-06-19T07:47:14;8.63;;;5.47;;
59424;SDS011;45231;44.826;20.312;2023-06-19T07:49:41;8.90;;;5.32;;
59424;SDS011;45231;44.826;20.312;2023-06-19T07:52:07;9.38;;;5.18;;
59424;SDS011;45231;44.826;20.312;2023-06-19T07:54:36;10.15;;;5.28;;
59424;SDS011;45231;44.826;20.312;2023-06-19T07:57:02;7.40;;;5.38;;
59424;SDS011;45231;44.826;20.312;2023-06-19T07:59:28;11.23;;;5.60;;
59424;SDS011;45231;44.826;20.312;2023-06-19T08:01:54;9.43;;;5.50;;
59424;SDS011;45231;44.826;20.312;2023-06-19T08:04:21;9.98;;;5.65;;
59424;SDS011;45231;44.826;20.312;2023-06-19T08:06:47;10.10;;;5.63;;
59424;SDS011;45231;44.826;20.312;2023-06-19T08:09:13;9.23;;;5.30;;
59424;SDS011;45231;44.826;20.312;2023-06-19T08:11:39;11.75;;;5.65;;
59424;SDS011;45231;44.826;20.312;2023-06-19T08:14:05;9.70;;;5.75;;
59424;SDS011;45231;44.826;20.312;2023-06-19T08:16:31;11.02;;;5.80;;
59424;SDS011;45231;44.826;20.312;2023-06-19T08:18:57;8.48;;;5.50;;
59424;SDS011;45231;44.826;20.312;2023-06-19T08:21:23;7.88;;;5.50;;
59424;SDS011;45231;44.826;20.312;2023-06-19T08:23:49;12.02;;;5.38;;
59424;SDS011;45231;44.826;20.312;2023-06-19T08:26:15;11.07;;;5.70;;
59424;SDS011;45231;44.826;20.312;2023-06-19T08:28:43;10.55;;;5.63;;
59424;SDS011;45231;44.826;20.312;2023-06-19T08:31:09;9.82;;;5.65;;
59424;SDS011;45231;44.826;20.312;2023-06-19T08:33:36;8.57;;;5.55;;
59424;SDS011;45231;44.826;20.312;2023-06-19T08:36:02;9.88;;;5.60;;
59424;SDS011;45231;44.826;20.312;2023-06-19T08:38:28;10.30;;;5.38;;
59424;SDS011;45231;44.826;20.312;2023-06-19T08:40:54;7.45;;;5.32;;
59424;SDS011;45231;44.826;20.312;2023-06-19T08:43:20;12.15;;;5.40;;
59424;SDS011;45231;44.826;20.312;2023-06-19T08:46:19;8.95;;;5.53;;
59424;SDS011;45231;44.826;20.312;2023-06-19T08:48:38;8.35;;;5.15;;
59424;SDS011;45231;44.826;20.312;2023-06-19T08:51:05;7.80;;;5.10;;
59424;SDS011;45231;44.826;20.312;2023-06-19T08:53:35;11.68;;;5.47;;
59424;SDS011;45231;44.826;20.312;2023-06-19T08:56:02;10.45;;;5.43;;
59424;SDS011;45231;44.826;20.312;2023-06-19T08:58:28;8.32;;;5.03;;
59424;SDS011;45231;44.826;20.312;2023-06-19T09:00:54;9.02;;;4.80;;
59424;SDS011;45231;44.826;20.312;2023-06-19T09:03:21;9.05;;;5.43;;
59424;SDS011;45231;44.826;20.312;2023-06-19T09:05:47;10.48;;;6.00;;
59424;SDS011;45231;44.826;20.312;2023-06-19T09:08:17;9.07;;;5.22;;
59424;SDS011;45231;44.826;20.312;2023-06-19T09:10:59;9.68;;;5.20;;
59424;SDS011;45231;44.826;20.312;2023-06-19T09:13:26;8.10;;;4.78;;
59424;SDS011;45231;44.826;20.312;2023-06-19T09:16:06;9.45;;;5.50;;
59424;SDS011;45231;44.826;20.312;2023-06-19T09:18:42;11.98;;;5.03;;
59424;SDS011;45231;44.826;20.312;2023-06-19T09:21:14;8.80;;;5.32;;
59424;SDS011;45231;44.826;20.312;2023-06-19T09:23:41;7.20;;;5.10;;
59424;SDS011;45231;44.826;20.312;2023-06-19T09:26:07;9.52;;;5.25;;
59424;SDS011;45231;44.826;20.312;2023-06-19T09:28:39;8.60;;;4.70;;
59424;SDS011;45231;44.826;20.312;2023-06-19T09:31:07;15.50;;;5.20;;
59424;SDS011;45231;44.826;20.312;2023-06-19T09:33:33;8.95;;;4.90;;
59424;SDS011;45231;44.826;20.312;2023-06-19T09:36:01;9.70;;;4.53;;
59424;SDS011;45231;44.826;20.312;2023-06-19T09:38:28;7.28;;;4.80;;
59424;SDS011;45231;44.826;20.312;2023-06-19T09:40:55;9.80;;;5.43;;
59424;SDS011;45231;44.826;20.312;2023-06-19T09:43:25;8.30;;;5.18;;
59424;SDS011;45231;44.826;20.312;2023-06-19T09:45:54;10.50;;;5.07;;
59424;SDS011;45231;44.826;20.312;2023-06-19T09:48:22;7.65;;;4.80;;
59424;SDS011;45231;44.826;20.312;2023-06-19T09:50:51;9.50;;;5.10;;
59424;SDS011;45231;44.826;20.312;2023-06-19T09:53:20;9.15;;;5.10;;
59424;SDS011;45231;44.826;20.312;2023-06-19T09:55:49;8.98;;;5.20;;
59424;SDS011;45231;44.826;20.312;2023-06-19T09:58:21;10.55;;;5.40;;
59424;SDS011;45231;44.826;20.312;2023-06-19T10:00:47;13.63;;;4.70;;
59424;SDS011;45231;44.826;20.312;2023-06-19T10:03:15;7.70;;;4.65;;
59424;SDS011;45231;44.826;20.312;2023-06-19T10:05:41;8.52;;;4.80;;
59424;SDS011;45231;44.826;20.312;2023-06-19T10:08:09;8.13;;;5.35;;
59424;SDS011;45231;44.826;20.312;2023-06-19T10:10:35;9.00;;;5.07;;
59424;SDS011;45231;44.826;20.312;2023-06-19T10:13:11;9.43;;;4.53;;
59424;SDS011;45231;44.826;20.312;2023-06-19T10:15:40;9.23;;;4.28;;
59424;SDS011;45231;44.826;20.312;2023-06-19T10:18:18;8.48;;;4.57;;
59424;SDS011;45231;44.826;20.312;2023-06-19T10:20:45;7.18;;;4.57;;
59424;SDS011;45231;44.826;20.312;2023-06-19T10:25:39;10.50;;;5.03;;
59424;SDS011;45231;44.826;20.312;2023-06-19T10:33:23;7.50;;;4.75;;
59424;SDS011;45231;44.826;20.312;2023-06-19T10:35:49;9.15;;;4.68;;
59424;SDS011;45231;44.826;20.312;2023-06-19T10:38:16;9.73;;;4.80;;
59424;SDS011;45231;44.826;20.312;2023-06-19T10:40:42;9.95;;;4.72;;
59424;SDS011;45231;44.826;20.312;2023-06-19T10:43:09;8.48;;;4.72;;
59424;SDS011;45231;44.826;20.312;2023-06-19T10:45:36;7.85;;;4.75;;
59424;SDS011;45231;44.826;20.312;2023-06-19T10:48:02;8.20;;;5.03;;
59424;SDS011;45231;44.826;20.312;2023-06-19T10:50:29;7.43;;;4.55;;
59424;SDS011;45231;44.826;20.312;2023-06-19T10:52:55;6.57;;;4.60;;
59424;SDS011;45231;44.826;20.312;2023-06-19T10:55:22;9.80;;;4.40;;
59424;SDS011;45231;44.826;20.312;2023-06-19T10:57:48;7.43;;;4.30;;
59424;SDS011;45231;44.826;20.312;2023-06-19T11:00:27;7.63;;;4.57;;
59424;SDS011;45231;44.826;20.312;2023-06-19T11:02:57;8.07;;;4.63;;
59424;SDS011;45231;44.826;20.312;2023-06-19T11:05:24;8.25;;;4.25;;
59424;SDS011;45231;44.826;20.312;2023-06-19T11:07:59;7.18;;;4.38;;
59424;SDS011;45231;44.826;20.312;2023-06-19T11:10:27;7.85;;;4.20;;
59424;SDS011;45231;44.826;20.312;2023-06-19T11:12:54;8.68;;;4.72;;
59424;SDS011;45231;44.826;20.312;2023-06-19T11:15:27;8.07;;;4.70;;
59424;SDS011;45231;44.826;20.312;2023-06-19T11:17:53;10.20;;;4.82;;
59424;SDS011;45231;44.826;20.312;2023-06-19T11:20:19;7.88;;;4.40;;
59424;SDS011;45231;44.826;20.312;2023-06-19T11:22:45;6.25;;;4.07;;
59424;SDS011;45231;44.826;20.312;2023-06-19T11:25:11;10.40;;;4.78;;
59424;SDS011;45231;44.826;20.312;2023-06-19T11:27:38;9.18;;;4.57;;
59424;SDS011;45231;44.826;20.312;2023-06-19T11:30:05;7.47;;;5.00;;
59424;SDS011;45231;44.826;20.312;2023-06-19T11:32:33;7.07;;;4.75;;
59424;SDS011;45231;44.826;20.312;2023-06-19T11:35:06;8.77;;;4.68;;
59424;SDS011;45231;44.826;20.312;2023-06-19T11:37:32;6.47;;;4.65;;
59424;SDS011;45231;44.826;20.312;2023-06-19T11:39:59;7.32;;;4.55;;
59424;SDS011;45231;44.826;20.312;2023-06-19T11:42:26;7.47;;;4.57;;
59424;SDS011;45231;44.826;20.312;2023-06-19T11:44:52;9.55;;;4.47;;
59424;SDS011;45231;44.826;20.312;2023-06-19T11:47:19;7.28;;;4.22;;
59424;SDS011;45231;44.826;20.312;2023-06-19T11:49:49;7.50;;;4.38;;
59424;SDS011;45231;44.826;20.312;2023-06-19T11:52:16;7.95;;;4.50;;
59424;SDS011;45231;44.826;20.312;2023-06-19T11:54:42;20.83;;;4.93;;
59424;SDS011;45231;44.826;20.312;2023-06-19T11:57:11;11.02;;;4.72;;
59424;SDS011;45231;44.826;20.312;2023-06-19T11:59:41;11.15;;;4.22;;
59424;SDS011;45231;44.826;20.312;2023-06-19T12:02:08;7.00;;;4.82;;
59424;SDS011;45231;44.826;20.312;2023-06-19T12:04:35;7.18;;;4.18;;
59424;SDS011;45231;44.826;20.312;2023-06-19T12:07:01;7.40;;;4.65;;
59424;SDS011;45231;44.826;20.312;2023-06-19T12:09:29;7.43;;;4.50;;
59424;SDS011;45231;44.826;20.312;2023-06-19T12:11:56;8.07;;;4.60;;
59424;SDS011;45231;44.826;20.312;2023-06-19T12:14:22;6.70;;;4.47;;
59424;SDS011;45231;44.826;20.312;2023-06-19T12:16:49;6.75;;;4.53;;
59424;SDS011;45231;44.826;20.312;2023-06-19T12:19:15;8.60;;;4.88;;
59424;SDS011;45231;44.826;20.312;2023-06-19T12:21:42;8.75;;;5.15;;
59424;SDS011;45231;44.826;20.312;2023-06-19T12:24:08;7.05;;;4.97;;
59424;SDS011;45231;44.826;20.312;2023-06-19T12:26:34;8.73;;;4.72;;
59424;SDS011;45231;44.826;20.312;2023-06-19T12:29:03;6.35;;;4.55;;
59424;SDS011;45231;44.826;20.312;2023-06-19T12:31:31;8.98;;;4.97;;
59424;SDS011;45231;44.826;20.312;2023-06-19T12:33:57;8.27;;;4.60;;
59424;SDS011;45231;44.826;20.312;2023-06-19T12:36:23;7.75;;;4.43;;
59424;SDS011;45231;44.826;20.312;2023-06-19T12:38:51;10.98;;;4.65;;
59424;SDS011;45231;44.826;20.312;2023-06-19T12:41:18;8.57;;;4.68;;
59424;SDS011;45231;44.826;20.312;2023-06-19T12:43:44;6.70;;;4.40;;
59424;SDS011;45231;44.826;20.312;2023-06-19T12:46:11;9.07;;;4.85;;
59424;SDS011;45231;44.826;20.312;2023-06-19T12:48:37;7.57;;;4.35;;
59424;SDS011;45231;44.826;20.312;2023-06-19T12:51:03;7.20;;;4.80;;
59424;SDS011;45231;44.826;20.312;2023-06-19T12:53:29;6.45;;;4.22;;
59424;SDS011;45231;44.826;20.312;2023-06-19T12:55:59;7.13;;;4.60;;
59424;SDS011;45231;44.826;20.312;2023-06-19T12:58:25;53.50;;;6.38;;
59424;SDS011;45231;44.826;20.312;2023-06-19T13:00:53;30.65;;;5.40;;
59424;SDS011;45231;44.826;20.312;2023-06-19T13:03:19;8.93;;;5.05;;
59424;SDS011;45231;44.826;20.312;2023-06-19T13:05:45;8.82;;;4.60;;
59424;SDS011;45231;44.826;20.312;2023-06-19T13:08:12;10.60;;;5.13;;
59424;SDS011;45231;44.826;20.312;2023-06-19T13:10:38;18.00;;;4.95;;
59424;SDS011;45231;44.826;20.312;2023-06-19T13:13:05;7.82;;;5.13;;
59424;SDS011;45231;44.826;20.312;2023-06-19T13:15:31;10.85;;;4.63;;
59424;SDS011;45231;44.826;20.312;2023-06-19T13:18:00;9.00;;;4.50;;
59424;SDS011;45231;44.826;20.312;2023-06-19T13:20:26;7.45;;;4.70;;
59424;SDS011;45231;44.826;20.312;2023-06-19T13:22:52;7.45;;;4.97;;
59424;SDS011;45231;44.826;20.312;2023-06-19T13:25:19;7.75;;;4.65;;
59424;SDS011;45231;44.826;20.312;2023-06-19T13:27:45;7.07;;;4.60;;
59424;SDS011;45231;44.826;20.312;2023-06-19T13:30:11;7.13;;;4.80;;
59424;SDS011;45231;44.826;20.312;2023-06-19T13:32:38;12.95;;;5.20;;
59424;SDS011;45231;44.826;20.312;2023-06-19T13:35:07;7.55;;;4.90;;
59424;SDS011;45231;44.826;20.312;2023-06-19T13:37:34;14.45;;;5.32;;
59424;SDS011;45231;44.826;20.312;2023-06-19T13:40:01;7.13;;;4.10;;
59424;SDS011;45231;44.826;20.312;2023-06-19T13:42:29;7.47;;;4.57;;
59424;SDS011;45231;44.826;20.312;2023-06-19T13:44:55;7.40;;;4.70;;
59424;SDS011;45231;44.826;20.312;2023-06-19T13:47:21;11.75;;;4.43;;
59424;SDS011;45231;44.826;20.312;2023-06-19T13:49:50;11.10;;;4.90;;
59424;SDS011;45231;44.826;20.312;2023-06-19T13:52:16;7.93;;;4.20;;
59424;SDS011;45231;44.826;20.312;2023-06-19T13:54:42;8.13;;;4.47;;
59424;SDS011;45231;44.826;20.312;2023-06-19T13:57:08;7.50;;;4.30;;
59424;SDS011;45231;44.826;20.312;2023-06-19T13:59:34;25.15;;;5.22;;
59424;SDS011;45231;44.826;20.312;2023-06-19T14:02:01;6.85;;;4.47;;
59424;SDS011;45231;44.826;20.312;2023-06-19T14:04:27;11.13;;;4.68;;
59424;SDS011;45231;44.826;20.312;2023-06-19T14:06:53;10.32;;;4.35;;
59424;SDS011;45231;44.826;20.312;2023-06-19T14:09:20;7.80;;;4.63;;
59424;SDS011;45231;44.826;20.312;2023-06-19T14:11:46;6.78;;;4.32;;
59424;SDS011;45231;44.826;20.312;2023-06-19T14:14:12;6.95;;;4.40;;
59424;SDS011;45231;44.826;20.312;2023-06-19T14:16:38;7.18;;;4.30;;
59424;SDS011;45231;44.826;20.312;2023-06-19T14:19:05;8.20;;;4.55;;
59424;SDS011;45231;44.826;20.312;2023-06-19T14:21:31;8.55;;;4.20;;
59424;SDS011;45231;44.826;20.312;2023-06-19T14:23:57;8.23;;;4.72;;
59424;SDS011;45231;44.826;20.312;2023-06-19T14:26:23;7.65;;;4.60;;
59424;SDS011;45231;44.826;20.312;2023-06-19T14:28:49;6.68;;;4.30;;
59424;SDS011;45231;44.826;20.312;2023-06-19T14:31:20;7.60;;;4.43;;
59424;SDS011;45231;44.826;20.312;2023-06-19T14:33:46;8.52;;;4.70;;
59424;SDS011;45231;44.826;20.312;2023-06-19T14:36:12;7.70;;;4.93;;
59424;SDS011;45231;44.826;20.312;2023-06-19T14:38:38;7.53;;;4.75;;
59424;SDS011;45231;44.826;20.312;2023-06-19T14:41:04;9.68;;;4.88;;
59424;SDS011;45231;44.826;20.312;2023-06-19T14:43:30;11.00;;;4.65;;
59424;SDS011;45231;44.826;20.312;2023-06-19T14:45:57;8.35;;;4.70;;
59424;SDS011;45231;44.826;20.312;2023-06-19T14:48:23;8.63;;;4.78;;
59424;SDS011;45231;44.826;20.312;2023-06-19T14:50:50;11.48;;;4.80;;
59424;SDS011;45231;44.826;20.312;2023-06-19T14:53:16;7.15;;;4.50;;
59424;SDS011;45231;44.826;20.312;2023-06-19T14:55:42;9.05;;;5.03;;
59424;SDS011;45231;44.826;20.312;2023-06-19T14:58:11;8.00;;;4.97;;
59424;SDS011;45231;44.826;20.312;2023-06-19T15:00:37;7.05;;;4.78;;
59424;SDS011;45231;44.826;20.312;2023-06-19T15:03:04;7.88;;;4.38;;